Portage la Prairie, Canada
Current Conditions -  °F | °C
As of 3:00 PM on Monday 24 Nov 2014 (Local Time) from CYWG Reporting Station
Few Clouds Few Clouds  
Wind Chill: -4°   Ceiling: Unl
Heat Index: 12°   Visibility: 15mi
Dew Point:   Wind: 15mph
Humidity: 67%   Direction: 320°NW
Pressure: 29.92"   Gusts: NA
Location:  49.97°N, 98.29°W
Report Text: CYWG 242100Z 32013KT 15SM FEW250 M11/M16 A2992 RMK CI1 SLP152
Loading
Personal Weather Stations






























Interactive Weather Map New forecast layout! Learn more

10-Day Weather Forecast

Advertisements
Track Severe Weather on mobile